Time;durP1;ratioP1;P1;durP2;ratioP2;P2;SDS_P1;SDS_P2;PMS_P1;PMS_P2;Temp;Humidity;BMP_temperature;BMP_pressure;BME280_temperature;BME280_humidity;BME280_pressure;Samples;Min_cycle;Max_cycle;Signal;HPM_P1;HPM_P2
2021/07/28 00:00:46;;;;;;;9.63;5.50;;;26.40;54.80;;;;;;4151434;28;20050;-59
2021/07/28 00:02:49;;;;;;;8.05;4.80;;;26.40;54.80;;;;;;4151237;28;20082;-59
2021/07/28 00:04:51;;;;;;;5.78;4.93;;;26.40;54.50;;;;;;4151495;28;20046;-59
2021/07/28 00:06:53;;;;;;;7.63;4.80;;;26.40;54.60;;;;;;4151470;28;20046;-59
2021/07/28 00:08:55;;;;;;;7.25;5.72;;;26.40;54.40;;;;;;4151329;28;20046;-59
2021/07/28 00:10:57;;;;;;;9.18;5.35;;;26.40;54.50;;;;;;4151274;28;20043;-59
2021/07/28 00:12:59;;;;;;;7.68;4.50;;;26.40;54.50;;;;;;4151207;28;20050;-59
2021/07/28 00:15:02;;;;;;;5.15;4.20;;;26.40;54.60;;;;;;4151366;28;20077;-59
2021/07/28 00:17:06;;;;;;;6.55;4.25;;;26.40;54.70;;;;;;4151337;28;20050;-59
2021/07/28 00:19:13;;;;;;;7.35;4.10;;;26.40;54.20;;;;;;4152900;28;20056;-59
2021/07/28 00:23:36;;;;;;;6.60;4.78;;;26.30;54.60;;;;;;4151027;28;20046;-59
2021/07/28 00:25:38;;;;;;;5.72;4.32;;;26.30;54.50;;;;;;4151068;28;20112;-59
2021/07/28 00:27:40;;;;;;;9.23;4.60;;;26.30;54.50;;;;;;4150992;28;20052;-59
2021/07/28 00:29:42;;;;;;;7.97;4.93;;;26.30;54.50;;;;;;4151172;28;20050;-59
2021/07/28 00:31:44;;;;;;;8.27;4.93;;;26.40;54.50;;;;;;4151035;28;20050;-59
2021/07/28 00:33:46;;;;;;;9.20;4.88;;;26.30;54.30;;;;;;4150935;28;20054;-60
2021/07/28 00:35:48;;;;;;;5.32;4.55;;;26.30;54.10;;;;;;4150891;28;20114;-60
2021/07/28 00:37:51;;;;;;;6.43;4.45;;;26.30;54.20;;;;;;4150849;28;20050;-60
2021/07/28 00:39:53;;;;;;;8.85;4.40;;;26.30;53.80;;;;;;4150951;28;20051;-59
2021/07/28 00:41:55;;;;;;;7.80;4.32;;;26.30;53.70;;;;;;4150723;28;20081;-59
2021/07/28 00:43:57;;;;;;;5.82;3.95;;;26.30;53.80;;;;;;4150791;28;20050;-59
2021/07/28 00:45:59;;;;;;;6.35;4.00;;;26.30;53.90;;;;;;4150815;28;20067;-59
2021/07/28 00:48:01;;;;;;;9.63;4.03;;;26.30;53.70;;;;;;4150724;28;20053;-58
2021/07/28 00:50:04;;;;;;;5.68;4.10;;;26.30;53.70;;;;;;4150721;28;20063;-57
2021/07/28 00:52:07;;;;;;;9.68;4.13;;;26.20;53.90;;;;;;4150815;28;20102;-57
2021/07/28 00:54:10;;;;;;;7.88;4.10;;;26.30;53.50;;;;;;4150753;28;20081;-57
2021/07/28 00:56:13;;;;;;;6.95;4.20;;;26.20;53.70;;;;;;4150559;28;20050;-57
2021/07/28 00:58:16;;;;;;;7.50;3.58;;;26.30;53.80;;;;;;4150567;28;20057;-46
2021/07/28 01:00:18;;;;;;;8.88;4.00;;;26.20;53.50;;;;;;4150528;28;20065;-45
2021/07/28 01:02:20;;;;;;;5.47;4.25;;;26.20;53.60;;;;;;4150454;28;20047;-45
2021/07/28 01:04:24;;;;;;;9.75;5.35;;;26.20;53.70;;;;;;4150308;28;20046;-45
2021/07/28 01:06:26;;;;;;;6.60;3.90;;;26.20;53.60;;;;;;4149930;28;20061;-46
2021/07/28 01:08:28;;;;;;;5.85;3.60;;;26.20;53.70;;;;;;4150418;28;20065;-44
2021/07/28 01:10:31;;;;;;;9.43;4.10;;;26.20;53.60;;;;;;4150428;28;20101;-46
2021/07/28 01:12:34;;;;;;;8.20;3.67;;;26.20;53.60;;;;;;4150319;28;20050;-43
2021/07/28 01:14:36;;;;;;;9.20;4.30;;;26.20;53.50;;;;;;4150270;28;20052;-47
2021/07/28 01:16:40;;;;;;;7.00;4.20;;;26.20;53.50;;;;;;4150242;28;20050;-45
2021/07/28 01:18:43;;;;;;;;;;;26.20;53.70;;;;;;4150718;28;20050;-44
2021/07/28 01:20:47;;;;;;;6.88;3.72;;;26.20;53.50;;;;;;4155134;28;19928;-57
2021/07/28 01:22:53;;;;;;;5.13;4.35;;;26.20;53.40;;;;;;4158108;28;20083;-57
2021/07/28 01:24:55;;;;;;;8.43;4.05;;;26.20;53.50;;;;;;4166377;28;20049;-57
2021/07/28 01:27:01;;;;;;;9.57;4.00;;;26.20;53.50;;;;;;4166465;28;20045;-57
2021/07/28 01:29:04;;;;;;;5.88;3.85;;;26.20;53.40;;;;;;4166305;28;20072;-57
2021/07/28 01:31:07;;;;;;;5.78;3.88;;;26.20;53.40;;;;;;4166331;28;20056;-57
2021/07/28 01:33:09;;;;;;;6.63;3.92;;;26.10;53.50;;;;;;4166230;28;20064;-45
2021/07/28 01:35:15;;;;;;;5.28;3.97;;;26.10;53.40;;;;;;4166358;28;20050;-47
2021/07/28 01:37:18;;;;;;;7.97;4.97;;;26.10;53.50;;;;;;4166407;28;20053;-44
2021/07/28 01:39:20;;;;;;;5.93;4.28;;;26.10;53.50;;;;;;4166379;28;20054;-44
2021/07/28 01:41:22;;;;;;;10.95;4.47;;;26.10;53.40;;;;;;4166029;28;20049;-45
2021/07/28 01:43:26;;;;;;;10.35;4.10;;;26.10;53.50;;;;;;4166093;28;20049;-44
2021/07/28 01:45:28;;;;;;;;;;;26.10;53.40;;;;;;4166774;28;20052;-50
2021/07/28 01:47:30;;;;;;;8.27;3.53;;;26.10;53.40;;;;;;4166575;28;19944;-48
2021/07/28 01:49:33;;;;;;;5.45;4.15;;;26.10;53.30;;;;;;4166552;28;20041;-48
2021/07/28 01:51:42;;;;;;;12.27;7.93;;;26.10;53.30;;;;;;4153813;28;20110;-48
2021/07/28 01:53:44;;;;;;;10.88;7.75;;;26.20;56.80;;;;;;4150485;28;20050;-42
2021/07/28 01:55:46;;;;;;;8.43;5.20;;;26.10;56.70;;;;;;4163501;28;20050;-46
2021/07/28 01:57:48;;;;;;;6.05;4.50;;;26.10;54.40;;;;;;4166725;28;20050;-43
2021/07/28 01:59:51;;;;;;;12.77;4.53;;;26.10;53.80;;;;;;4166790;28;20050;-46
2021/07/28 02:01:53;;;;;;;10.38;4.40;;;26.10;53.60;;;;;;4166600;28;20050;-46
2021/07/28 02:03:56;;;;;;;10.18;4.22;;;26.10;53.50;;;;;;4166563;28;20049;-45
2021/07/28 02:05:58;;;;;;;8.07;4.45;;;26.10;53.50;;;;;;4166602;28;20259;-43
2021/07/28 02:08:05;;;;;;;8.25;4.70;;;26.10;53.50;;;;;;4166688;28;20109;-46
2021/07/28 02:10:08;;;;;;;8.82;4.28;;;26.10;53.40;;;;;;4166618;28;20048;-45
2021/07/28 02:12:10;;;;;;;8.77;4.60;;;26.10;53.50;;;;;;4166561;28;20046;-44
2021/07/28 02:14:12;;;;;;;6.18;4.55;;;26.10;53.50;;;;;;4166443;28;20091;-43
2021/07/28 02:16:14;;;;;;;6.70;4.20;;;26.10;53.50;;;;;;4166311;28;20110;-48
2021/07/28 02:18:16;;;;;;;10.25;4.97;;;26.10;53.40;;;;;;4166573;28;20041;-44
2021/07/28 02:20:19;;;;;;;10.68;4.22;;;26.10;53.50;;;;;;4166455;28;20042;-43
2021/07/28 02:22:21;;;;;;;6.25;4.30;;;26.10;53.50;;;;;;4166436;28;20064;-46
2021/07/28 02:24:23;;;;;;;11.82;5.50;;;26.10;53.40;;;;;;4166412;28;20072;-43
2021/07/28 02:26:25;;;;;;;5.70;4.38;;;26.10;53.40;;;;;;4166357;28;20046;-43
2021/07/28 02:28:29;;;;;;;8.80;4.50;;;26.10;53.40;;;;;;4166379;28;20045;-44
2021/07/28 02:30:31;;;;;;;11.15;5.20;;;26.10;53.30;;;;;;4166472;28;20106;-45
2021/07/28 02:32:33;;;;;;;8.20;4.43;;;26.10;53.40;;;;;;4166420;28;20050;-43
2021/07/28 02:34:36;;;;;;;9.48;5.30;;;26.10;53.30;;;;;;4166331;28;20430;-43
2021/07/28 02:36:38;;;;;;;10.82;4.75;;;26.00;53.40;;;;;;4166235;28;20060;-45
2021/07/28 02:38:40;;;;;;;7.70;4.72;;;26.00;53.40;;;;;;4166211;28;20050;-44
2021/07/28 02:40:42;;;;;;;9.95;5.40;;;26.00;53.50;;;;;;4166220;28;20076;-44
2021/07/28 02:42:44;;;;;;;12.23;4.50;;;26.00;53.40;;;;;;4166044;28;20103;-43
2021/07/28 02:44:46;;;;;;;10.63;5.20;;;26.00;53.30;;;;;;4166127;28;20074;-43
2021/07/28 02:46:48;;;;;;;10.88;5.22;;;26.00;53.30;;;;;;4166043;28;20064;-44
2021/07/28 02:48:50;;;;;;;6.55;4.95;;;26.00;53.30;;;;;;4166116;28;20045;-44
2021/07/28 02:50:52;;;;;;;11.48;4.65;;;26.00;53.20;;;;;;4166103;28;20045;-44
2021/07/28 02:52:54;;;;;;;10.70;5.72;;;26.00;53.20;;;;;;4166103;28;20110;-45
2021/07/28 02:54:56;;;;;;;7.45;4.97;;;26.00;53.20;;;;;;4166134;28;20065;-43
2021/07/28 02:56:58;;;;;;;8.48;5.10;;;26.00;53.10;;;;;;4166089;28;20069;-44
2021/07/28 02:59:00;;;;;;;10.65;5.20;;;26.00;53.20;;;;;;4165129;28;20050;-43
2021/07/28 03:01:02;;;;;;;9.02;4.65;;;26.00;53.10;;;;;;4166085;28;20056;-45
2021/07/28 03:03:05;;;;;;;8.13;4.45;;;26.00;53.20;;;;;;4165905;28;20407;-47
2021/07/28 03:05:07;;;;;;;8.48;4.43;;;26.00;53.20;;;;;;4165983;28;20053;-43
2021/07/28 03:07:09;;;;;;;9.07;5.40;;;26.00;53.30;;;;;;4166025;28;20050;-45
2021/07/28 03:09:11;;;;;;;9.82;5.05;;;26.00;53.20;;;;;;4165942;28;20057;-43
2021/07/28 03:11:13;;;;;;;11.55;5.22;;;26.00;53.20;;;;;;4165846;28;20046;-43
2021/07/28 03:13:15;;;;;;;7.13;4.82;;;26.00;53.20;;;;;;4165907;28;20054;-45
2021/07/28 03:15:17;;;;;;;7.43;4.95;;;26.00;53.30;;;;;;4166065;28;20114;-43
2021/07/28 03:17:19;;;;;;;9.68;5.60;;;26.00;53.20;;;;;;4166013;28;20114;-44
2021/07/28 03:19:21;;;;;;;7.30;5.00;;;26.00;53.20;;;;;;4165920;28;20513;-48
2021/07/28 03:21:23;;;;;;;9.68;5.03;;;26.00;53.10;;;;;;4166018;28;20050;-48
2021/07/28 03:23:25;;;;;;;9.40;5.03;;;26.00;53.20;;;;;;4165884;28;20046;-56
2021/07/28 03:25:27;;;;;;;9.90;5.00;;;26.00;53.20;;;;;;4166253;28;20053;-42
2021/07/28 03:27:29;;;;;;;7.22;4.90;;;26.00;53.40;;;;;;4166256;28;20050;-42
2021/07/28 03:29:33;;;;;;;8.38;5.03;;;26.00;53.20;;;;;;4168508;28;20056;-43
2021/07/28 03:31:35;;;;;;;6.88;4.78;;;25.90;53.30;;;;;;4169158;28;20046;-44
2021/07/28 03:33:37;;;;;;;9.02;5.30;;;25.90;53.20;;;;;;4169049;28;20046;-48
2021/07/28 03:35:39;;;;;;;10.95;4.97;;;25.90;53.10;;;;;;4152716;28;20054;-43
2021/07/28 03:37:41;;;;;;;6.72;4.50;;;26.00;53.10;;;;;;4152799;28;20050;-42
2021/07/28 03:39:43;;;;;;;9.95;5.25;;;26.00;53.20;;;;;;4152735;28;20096;-44
2021/07/28 03:41:45;;;;;;;8.32;4.60;;;26.00;53.10;;;;;;4152238;28;20055;-55
2021/07/28 03:43:47;;;;;;;8.63;5.07;;;26.00;53.10;;;;;;4151536;28;20057;-55
2021/07/28 03:45:49;;;;;;;5.43;4.13;;;26.00;53.10;;;;;;4152360;28;20114;-52
2021/07/28 03:47:51;;;;;;;5.57;4.63;;;26.00;53.10;;;;;;4152347;28;20046;-51
2021/07/28 03:49:53;;;;;;;9.65;4.57;;;25.90;53.10;;;;;;4152140;28;20046;-55
2021/07/28 03:51:55;;;;;;;9.18;4.57;;;25.90;53.20;;;;;;4152157;28;20050;-51
2021/07/28 03:53:57;;;;;;;7.88;4.90;;;25.90;53.20;;;;;;4152139;28;20077;-51
2021/07/28 03:55:59;;;;;;;10.13;5.63;;;25.90;53.30;;;;;;4152191;28;20054;-52
2021/07/28 03:58:01;;;;;;;11.38;4.63;;;25.90;53.30;;;;;;4152253;28;20137;-54
2021/07/28 04:00:05;;;;;;;13.90;5.43;;;25.90;53.30;;;;;;4152193;28;20056;-49
2021/07/28 04:02:07;;;;;;;9.82;4.82;;;25.90;53.50;;;;;;4152272;28;20106;-52
2021/07/28 04:04:09;;;;;;;9.00;5.10;;;25.90;53.70;;;;;;4152062;28;20054;-49
2021/07/28 04:06:14;;;;;;;12.40;6.32;;;25.80;53.70;;;;;;4146981;28;20047;-53
2021/07/28 04:08:16;;;;;;;6.32;4.82;;;25.80;53.90;;;;;;4135946;28;20043;-52
2021/07/28 04:10:23;;;;;;;9.45;4.55;;;25.80;53.90;;;;;;4149165;28;20047;-48
2021/07/28 04:12:25;;;;;;;18.33;6.30;;;25.80;54.20;;;;;;4151507;28;20046;-51
2021/07/28 04:14:27;;;;;;;18.42;6.60;;;25.80;54.40;;;;;;4159261;28;20053;-53
2021/07/28 04:16:29;;;;;;;16.02;6.53;;;25.80;54.70;;;;;;4167672;28;20057;-52
2021/07/28 04:18:33;;;;;;;13.15;6.07;;;25.80;54.60;;;;;;4156422;28;20114;-54
2021/07/28 04:20:35;;;;;;;17.90;6.43;;;25.80;54.60;;;;;;4152357;28;20090;-57
2021/07/28 04:22:37;;;;;;;25.25;6.40;;;25.80;55.00;;;;;;4166961;28;20057;-57
2021/07/28 04:24:39;;;;;;;16.40;5.78;;;25.90;55.20;;;;;;4160201;28;20050;-61
2021/07/28 04:26:41;;;;;;;17.45;5.70;;;25.80;54.90;;;;;;4150968;28;20046;-61
2021/07/28 04:28:43;;;;;;;18.27;6.00;;;25.80;54.80;;;;;;4150473;28;20115;-61
2021/07/28 04:30:45;;;;;;;13.55;5.13;;;25.80;55.20;;;;;;4150629;28;20077;-68
2021/07/28 04:32:47;;;;;;;15.55;6.05;;;25.90;55.00;;;;;;4151135;28;20110;-50
2021/07/28 04:34:49;;;;;;;16.85;5.30;;;25.90;55.20;;;;;;4151359;28;20064;-49
2021/07/28 04:36:51;;;;;;;24.23;6.35;;;25.90;55.10;;;;;;4145928;28;20061;-49
2021/07/28 04:38:53;;;;;;;21.10;6.70;;;25.90;55.80;;;;;;4143300;28;20049;-64
2021/07/28 04:40:55;;;;;;;29.63;6.72;;;25.90;55.30;;;;;;4150596;28;20046;-67
2021/07/28 04:42:57;;;;;;;18.33;5.82;;;25.90;54.90;;;;;;4150206;28;20055;-67
2021/07/28 04:44:59;;;;;;;8.93;6.03;;;25.90;55.00;;;;;;4149606;28;20369;-67
2021/07/28 04:47:02;;;;;;;17.15;5.20;;;25.90;54.90;;;;;;4149660;28;20073;-67
2021/07/28 04:49:04;;;;;;;8.30;6.18;;;25.90;54.60;;;;;;4149793;28;20125;-67
2021/07/28 04:51:06;;;;;;;15.55;6.07;;;25.90;54.70;;;;;;4149606;28;20053;-66
2021/07/28 04:53:08;;;;;;;16.00;5.70;;;25.80;54.70;;;;;;4149310;28;20102;-67
2021/07/28 04:55:10;;;;;;;10.02;4.93;;;25.90;55.00;;;;;;4148821;28;20050;-67
2021/07/28 04:57:12;;;;;;;8.52;5.30;;;25.80;54.90;;;;;;4149357;28;20073;-64
2021/07/28 04:59:14;;;;;;;10.10;5.38;;;25.80;54.90;;;;;;4149523;28;20042;-64
2021/07/28 05:01:16;;;;;;;7.40;5.43;;;25.80;55.00;;;;;;4149498;28;20042;-64
2021/07/28 05:03:19;;;;;;;11.15;5.50;;;25.80;55.10;;;;;;4149361;28;20047;-64
2021/07/28 05:05:21;;;;;;;13.88;5.45;;;25.80;55.30;;;;;;4150038;28;20106;-55
2021/07/28 05:07:23;;;;;;;10.77;5.82;;;25.70;55.30;;;;;;4150306;28;20052;-54
2021/07/28 05:09:26;;;;;;;12.07;5.35;;;25.80;55.40;;;;;;4150546;28;20142;-56
2021/07/28 05:11:28;;;;;;;10.80;6.18;;;25.80;55.60;;;;;;4149629;28;20042;-64
2021/07/28 05:13:30;;;;;;;13.50;5.32;;;25.80;55.90;;;;;;4149204;28;20060;-64
2021/07/28 05:15:32;;;;;;;14.93;5.93;;;25.80;56.10;;;;;;4149566;28;20064;-64
2021/07/28 05:17:34;;;;;;;11.48;5.15;;;25.80;56.50;;;;;;4149528;28;20053;-64
2021/07/28 05:19:36;;;;;;;9.80;5.55;;;25.80;56.10;;;;;;4149261;28;20050;-64
2021/07/28 05:21:38;;;;;;;12.80;4.85;;;25.80;56.20;;;;;;4149438;28;20043;-64
2021/07/28 05:23:40;;;;;;;11.07;6.55;;;25.80;56.50;;;;;;4149424;28;20506;-64
2021/07/28 05:25:42;;;;;;;10.35;5.30;;;25.80;56.40;;;;;;4149553;28;20053;-63
2021/07/28 05:27:44;;;;;;;15.10;5.47;;;25.80;56.50;;;;;;4149384;28;20042;-64
2021/07/28 05:29:46;;;;;;;12.13;5.18;;;25.80;56.40;;;;;;4149417;28;20049;-64
2021/07/28 05:31:48;;;;;;;13.10;5.40;;;25.80;56.70;;;;;;4149479;28;20046;-64
2021/07/28 05:33:50;;;;;;;14.15;5.57;;;25.80;56.90;;;;;;4149184;28;20050;-64
2021/07/28 05:35:52;;;;;;;9.93;5.10;;;25.80;56.90;;;;;;4148738;28;20073;-64
2021/07/28 05:38:01;;;;;;;10.45;5.32;;;25.80;56.90;;;;;;4148804;28;20050;-64
2021/07/28 05:40:04;;;;;;;9.32;5.05;;;25.80;56.50;;;;;;4149066;28;20054;-54
2021/07/28 05:42:06;;;;;;;7.22;5.25;;;25.80;56.80;;;;;;4148017;28;20058;-57
2021/07/28 05:44:08;;;;;;;10.85;5.47;;;25.80;56.80;;;;;;4148894;28;20046;-57
2021/07/28 05:46:10;;;;;;;10.10;5.03;;;25.90;56.60;;;;;;4149080;28;20053;-57
2021/07/28 05:48:12;;;;;;;10.55;5.95;;;25.80;56.50;;;;;;4149214;28;20049;-67
2021/07/28 05:50:15;;;;;;;9.02;5.38;;;25.80;56.70;;;;;;4148965;28;20053;-67
2021/07/28 05:52:17;;;;;;;8.68;4.65;;;25.80;56.70;;;;;;4148471;28;20048;-65
2021/07/28 05:54:19;;;;;;;6.93;5.07;;;25.90;56.70;;;;;;4148919;28;20056;-64
2021/07/28 05:56:21;;;;;;;8.02;5.03;;;25.90;56.90;;;;;;4148749;28;20050;-64
2021/07/28 05:58:23;;;;;;;6.63;5.20;;;25.90;56.80;;;;;;4149142;28;20106;-56
2021/07/28 06:00:26;;;;;;;7.07;5.55;;;25.90;56.80;;;;;;4148659;28;20057;-55
2021/07/28 06:02:28;;;;;;;6.25;4.97;;;25.80;56.70;;;;;;4147747;28;20061;-56
2021/07/28 06:04:30;;;;;;;8.68;4.78;;;25.80;56.80;;;;;;4148883;28;20054;-57
2021/07/28 06:06:32;;;;;;;7.93;5.07;;;25.90;56.90;;;;;;4149125;28;20046;-55
2021/07/28 06:08:34;;;;;;;11.05;5.18;;;25.90;56.90;;;;;;4149880;28;20074;-55
2021/07/28 06:10:36;;;;;;;6.20;4.57;;;25.90;56.90;;;;;;4149975;28;20042;-55
2021/07/28 06:12:39;;;;;;;8.05;4.97;;;25.80;56.90;;;;;;4150044;28;20054;-56
2021/07/28 06:14:40;;;;;;;9.55;5.30;;;25.90;57.00;;;;;;4149960;28;20058;-55
2021/07/28 06:16:42;;;;;;;8.85;5.22;;;25.90;57.00;;;;;;4149795;28;20050;-56
2021/07/28 06:18:45;;;;;;;6.47;5.00;;;25.90;57.00;;;;;;4149715;28;20046;-57
2021/07/28 06:20:47;;;;;;;13.95;4.80;;;25.90;57.20;;;;;;4149850;28;20069;-55
2021/07/28 06:22:48;;;;;;;10.35;5.45;;;25.80;57.10;;;;;;4149784;28;20050;-56
2021/07/28 06:24:51;;;;;;;6.95;5.28;;;25.90;57.20;;;;;;4149458;28;20047;-55
2021/07/28 06:26:53;;;;;;;7.55;5.22;;;25.90;57.10;;;;;;4149708;28;20046;-54
2021/07/28 06:28:55;;;;;;;8.32;4.63;;;25.90;57.20;;;;;;4149512;28;20057;-56
2021/07/28 06:30:57;;;;;;;10.15;5.20;;;25.90;57.10;;;;;;4149854;28;20064;-55
2021/07/28 06:32:59;;;;;;;10.70;4.78;;;25.90;57.20;;;;;;4149022;28;20050;-67
2021/07/28 06:35:01;;;;;;;7.30;5.15;;;25.80;57.30;;;;;;4148808;28;20053;-67
2021/07/28 06:37:03;;;;;;;9.85;5.45;;;25.90;57.20;;;;;;4148876;28;20050;-64
2021/07/28 06:39:05;;;;;;;9.65;4.70;;;25.90;57.40;;;;;;4148780;28;20054;-64
2021/07/28 06:41:07;;;;;;;6.47;4.40;;;25.90;57.30;;;;;;4148942;28;20054;-64
2021/07/28 06:43:10;;;;;;;7.18;4.95;;;25.90;57.30;;;;;;4149010;28;20047;-64
2021/07/28 06:45:12;;;;;;;8.45;4.72;;;25.90;57.30;;;;;;4148628;28;20061;-64
2021/07/28 06:47:14;;;;;;;5.93;5.05;;;25.90;57.30;;;;;;4149257;28;20042;-54
2021/07/28 06:49:16;;;;;;;10.48;5.15;;;25.90;57.50;;;;;;4149443;28;20046;-54
2021/07/28 06:51:19;;;;;;;10.25;5.25;;;25.90;57.40;;;;;;4149452;28;20073;-57
2021/07/28 06:53:21;;;;;;;5.35;4.50;;;25.90;57.40;;;;;;4149546;28;20081;-51
2021/07/28 06:55:23;;;;;;;18.73;5.25;;;25.90;57.50;;;;;;4148614;28;20050;-54
2021/07/28 06:57:25;;;;;;;7.80;5.20;;;25.90;57.50;;;;;;4149095;28;20457;-57
2021/07/28 06:59:28;;;;;;;10.77;5.55;;;25.90;57.50;;;;;;4148648;28;20110;-55
2021/07/28 07:01:31;;;;;;;8.02;4.93;;;25.90;57.60;;;;;;4148610;28;20047;-67
2021/07/28 07:03:34;;;;;;;7.57;4.65;;;25.80;57.50;;;;;;4149458;28;20081;-67
2021/07/28 07:05:56;;;;;;;6.72;4.70;;;25.80;57.40;;;;;;4152176;28;20066;-67
2021/07/28 07:07:58;;;;;;;7.70;4.75;;;25.90;57.50;;;;;;4152031;28;20042;-67
2021/07/28 07:10:01;;;;;;;8.98;5.00;;;25.90;57.50;;;;;;4151845;28;20102;-67
2021/07/28 07:12:03;;;;;;;8.50;5.10;;;25.90;57.60;;;;;;4152418;28;20060;-56
2021/07/28 07:14:05;;;;;;;8.57;4.93;;;25.90;57.60;;;;;;4152511;28;20050;-54
2021/07/28 07:16:07;;;;;;;7.03;4.72;;;25.90;57.70;;;;;;4152583;28;20060;-53
2021/07/28 07:18:09;;;;;;;8.63;4.90;;;25.90;57.60;;;;;;4152640;28;20085;-55
2021/07/28 07:20:12;;;;;;;9.82;5.00;;;25.90;57.70;;;;;;4152109;28;20050;-67
2021/07/28 07:22:14;;;;;;;8.32;4.93;;;25.90;57.80;;;;;;4151715;28;20058;-66
2021/07/28 07:24:16;;;;;;;5.85;4.75;;;25.90;57.80;;;;;;4151592;28;20056;-67
2021/07/28 07:26:18;;;;;;;7.32;4.63;;;25.90;57.90;;;;;;4151703;28;20061;-67
2021/07/28 07:28:20;;;;;;;8.82;4.93;;;25.90;57.80;;;;;;4151763;28;20042;-67
2021/07/28 07:30:22;;;;;;;5.90;5.10;;;25.90;58.00;;;;;;4151584;28;20046;-67
2021/07/28 07:32:29;;;;;;;7.75;4.68;;;25.90;58.10;;;;;;4151625;28;20046;-67
2021/07/28 07:34:32;;;;;;;6.85;4.95;;;25.90;58.00;;;;;;4151983;28;20073;-55
2021/07/28 07:36:35;;;;;;;8.13;4.63;;;25.90;58.10;;;;;;4152266;28;20134;-55
2021/07/28 07:38:38;;;;;;;7.82;4.45;;;25.90;58.20;;;;;;4151897;28;20050;-57
2021/07/28 07:40:40;;;;;;;7.70;4.90;;;25.90;58.30;;;;;;4151624;28;20054;-56
2021/07/28 07:42:42;;;;;;;8.98;5.10;;;25.90;58.10;;;;;;4151820;28;20068;-56
2021/07/28 07:44:45;;;;;;;9.23;6.38;;;25.90;58.30;;;;;;4151623;28;20050;-57
2021/07/28 07:46:47;;;;;;;9.18;5.22;;;25.90;58.40;;;;;;4151390;28;20047;-57
2021/07/28 07:48:50;;;;;;;5.20;4.55;;;25.90;58.40;;;;;;4150995;28;20105;-64
2021/07/28 07:50:52;;;;;;;20.73;5.85;;;25.90;58.30;;;;;;4149066;28;20064;-66
2021/07/28 07:52:54;;;;;;;18.35;5.82;;;25.90;58.80;;;;;;4148773;28;20049;-65
2021/07/28 07:54:56;;;;;;;22.80;5.30;;;25.90;59.00;;;;;;4150083;28;20069;-56
2021/07/28 07:56:59;;;;;;;13.90;6.03;;;25.90;58.30;;;;;;3804167;28;10000377;-57
2021/07/28 07:59:01;;;;;;;15.18;6.15;;;25.90;58.10;;;;;;4150560;28;20116;-56
2021/07/28 08:01:10;;;;;;;17.30;5.63;;;25.90;58.10;;;;;;4150743;28;20046;-64
2021/07/28 08:03:12;;;;;;;10.20;5.25;;;25.90;57.90;;;;;;4149189;28;20089;-58
2021/07/28 08:05:14;;;;;;;7.68;5.10;;;26.00;58.00;;;;;;4148970;28;20430;-58
2021/07/28 08:07:16;;;;;;;16.05;6.35;;;26.00;57.90;;;;;;4149388;28;20065;-58
2021/07/28 08:09:18;;;;;;;6.93;5.38;;;26.00;58.00;;;;;;4149171;28;20092;-58
2021/07/28 08:11:20;;;;;;;9.25;5.18;;;26.10;57.90;;;;;;4149502;28;20085;-57
2021/07/28 08:13:23;;;;;;;12.93;6.25;;;26.00;57.70;;;;;;4148884;28;20046;-58
2021/07/28 08:15:25;;;;;;;7.45;5.63;;;26.00;58.60;;;;;;4148762;28;20167;-57
2021/07/28 08:17:28;;;;;;;15.45;5.85;;;26.10;58.20;;;;;;4149482;28;20472;-51
2021/07/28 08:19:31;;;;;;;13.52;5.32;;;26.10;58.40;;;;;;4150337;28;20054;-57
2021/07/28 08:21:34;;;;;;;10.55;6.43;;;26.10;57.80;;;;;;4148974;28;20054;-48
2021/07/28 08:23:41;;;;;;;12.20;6.18;;;26.20;58.60;;;;;;4150695;28;20047;-50
2021/07/28 08:25:42;;;;;;;14.90;5.85;;;26.20;57.90;;;;;;4149120;28;20060;-62
2021/07/28 08:27:44;;;;;;;8.95;5.88;;;26.20;57.70;;;;;;4148938;28;20073;-62
2021/07/28 08:29:46;;;;;;;9.13;5.32;;;26.20;57.60;;;;;;4148526;28;20050;-62
2021/07/28 08:31:48;;;;;;;12.48;5.53;;;26.20;58.00;;;;;;4148566;28;20051;-63
2021/07/28 08:33:50;;;;;;;37.72;7.30;;;26.20;57.80;;;;;;4149593;28;20053;-64
2021/07/28 08:35:57;;;;;;;24.92;7.03;;;26.30;58.60;;;;;;4149073;28;20061;-64
2021/07/28 08:37:59;;;;;;;21.08;7.03;;;26.30;58.10;;;;;;4148963;28;20158;-64
2021/07/28 08:40:01;;;;;;;18.15;6.78;;;26.20;58.40;;;;;;4148752;28;20062;-64
2021/07/28 08:42:04;;;;;;;23.90;8.63;;;26.30;58.10;;;;;;4147872;28;20068;-64
2021/07/28 08:44:07;;;;;;;21.83;8.25;;;26.30;57.80;;;;;;4148652;28;20054;-64
2021/07/28 08:46:09;;;;;;;18.77;9.38;;;26.30;58.00;;;;;;4148442;28;20056;-64
2021/07/28 08:48:11;;;;;;;12.23;8.50;;;26.30;57.80;;;;;;4148752;28;20063;-64
2021/07/28 08:50:14;;;;;;;15.75;8.70;;;26.30;57.80;;;;;;4148886;28;20518;-64
2021/07/28 08:52:16;;;;;;;22.15;10.07;;;26.30;57.90;;;;;;4148241;28;20050;-60
2021/07/28 08:54:18;;;;;;;26.38;14.13;;;26.30;58.20;;;;;;4147047;28;20050;-59
2021/07/28 08:56:23;;;;;;;42.70;14.45;;;26.30;58.90;;;;;;4150260;28;20042;-59
2021/07/28 08:58:27;;;;;;;25.58;13.50;;;26.30;58.90;;;;;;4149801;28;20053;-59
2021/07/28 09:00:29;;;;;;;29.42;14.25;;;26.30;58.50;;;;;;4150154;28;20042;-59
2021/07/28 09:02:31;;;;;;;24.65;13.93;;;26.30;58.40;;;;;;4150004;28;20389;-58
2021/07/28 09:04:33;;;;;;;25.58;13.60;;;26.30;58.30;;;;;;4150161;28;20050;-58
2021/07/28 09:06:36;;;;;;;31.00;13.52;;;26.30;58.60;;;;;;4150659;28;20110;-52
2021/07/28 09:08:39;;;;;;;21.40;12.23;;;26.40;59.60;;;;;;4151341;28;20061;-55
2021/07/28 09:10:51;;;;;;;24.13;13.77;;;26.30;59.00;;;;;;4151316;28;20054;-53
2021/07/28 09:12:54;;;;;;;25.98;14.25;;;26.30;58.70;;;;;;4150144;28;20076;-64
2021/07/28 09:15:01;;;;;;;17.48;11.48;;;26.30;58.30;;;;;;4149748;28;20057;-63
2021/07/28 09:17:18;;;;;;;25.05;13.18;;;26.30;58.60;;;;;;4149870;28;20088;-59
2021/07/28 09:19:40;;;;;;;16.73;12.57;;;26.30;58.20;;;;;;4149788;28;20046;-59
2021/07/28 09:21:42;;;;;;;18.40;11.65;;;26.30;58.10;;;;;;4149906;28;20114;-59
2021/07/28 09:23:45;;;;;;;22.55;11.27;;;26.30;58.80;;;;;;4149282;28;20058;-59
2021/07/28 09:25:55;;;;;;;24.95;12.10;;;26.30;58.30;;;;;;4148999;28;20050;-59
2021/07/28 09:27:57;;;;;;;20.88;11.77;;;26.30;58.10;;;;;;4149746;28;20052;-59
2021/07/28 09:29:59;;;;;;;21.45;11.18;;;26.30;58.10;;;;;;4149716;28;20048;-59
2021/07/28 09:32:02;;;;;;;24.30;12.75;;;26.30;58.10;;;;;;4149348;28;20125;-58
2021/07/28 09:34:23;;;;;;;19.20;10.82;;;26.30;58.60;;;;;;4149556;28;20046;-58
2021/07/28 09:36:25;;;;;;;20.50;12.63;;;26.30;58.10;;;;;;4149550;28;20050;-58
2021/07/28 09:38:30;;;;;;;32.42;13.05;;;26.30;58.10;;;;;;4149220;28;20050;-58
2021/07/28 09:40:32;;;;;;;30.40;13.80;;;26.30;58.00;;;;;;4147340;28;20046;-58
2021/07/28 09:42:35;;;;;;;62.40;20.52;;;26.30;57.90;;;;;;4149353;28;20113;-59
2021/07/28 09:44:39;;;;;;;50.38;17.63;;;26.30;58.80;;;;;;4149349;28;20065;-58
2021/07/28 09:46:41;;;;;;;44.08;16.92;;;26.30;58.40;;;;;;4149446;28;20052;-58
2021/07/28 09:48:43;;;;;;;50.30;18.17;;;26.30;58.00;;;;;;4149320;28;20050;-58
2021/07/28 09:50:45;;;;;;;55.58;21.10;;;26.30;58.10;;;;;;4149190;28;20051;-59
2021/07/28 09:52:51;;;;;;;78.53;23.85;;;26.30;58.10;;;;;;4149374;28;20046;-58
2021/07/28 09:54:55;;;;;;;68.60;21.35;;;26.30;58.90;;;;;;4149304;28;20068;-58
2021/07/28 09:57:00;;;;;;;84.68;25.48;;;26.30;58.20;;;;;;4149225;28;20050;-59
2021/07/28 09:59:04;;;;;;;80.60;26.30;;;26.30;58.90;;;;;;4149207;28;20054;-59
2021/07/28 10:01:06;;;;;;;83.95;26.73;;;26.30;58.30;;;;;;4148348;28;20054;-58
2021/07/28 10:03:09;;;;;;;85.32;26.48;;;26.30;58.20;;;;;;4147937;28;20498;-58
2021/07/28 10:05:12;;;;;;;78.38;26.65;;;26.30;58.50;;;;;;4148871;28;20061;-58
2021/07/28 10:07:16;;;;;;;81.57;27.60;;;26.30;58.40;;;;;;4149115;28;20460;-59
2021/07/28 10:09:29;;;;;;;79.03;26.80;;;26.30;58.70;;;;;;4149138;28;20042;-58
2021/07/28 10:11:32;;;;;;;78.55;27.48;;;26.30;58.40;;;;;;4148758;28;20054;-58
2021/07/28 10:13:34;;;;;;;80.05;26.98;;;26.30;58.30;;;;;;4149304;28;20379;-59
2021/07/28 10:15:37;;;;;;;81.32;26.63;;;26.30;58.90;;;;;;4148958;28;20109;-58
2021/07/28 10:17:41;;;;;;;91.10;27.30;;;26.30;58.50;;;;;;4149075;28;20133;-58
2021/07/28 10:19:43;;;;;;;78.95;27.75;;;26.20;58.50;;;;;;4149057;28;20216;-59
2021/07/28 10:22:02;;;;;;;76.95;25.25;;;26.30;58.60;;;;;;4148909;28;20053;-58
2021/07/28 10:24:05;;;;;;;74.80;26.33;;;26.30;58.50;;;;;;4149204;28;20088;-59
2021/07/28 10:26:08;;;;;;;65.13;24.57;;;26.30;58.30;;;;;;4149103;28;20053;-58
2021/07/28 10:28:10;;;;;;;62.80;23.63;;;26.30;58.30;;;;;;4148573;28;20336;-58
2021/07/28 10:30:14;;;;;;;64.13;22.17;;;26.30;58.50;;;;;;4148583;28;20046;-58
2021/07/28 10:32:33;;;;;;;61.22;22.45;;;26.30;58.40;;;;;;4148878;28;20101;-58
2021/07/28 10:34:37;;;;;;;56.40;20.38;;;26.30;58.20;;;;;;4148840;28;20085;-59
2021/07/28 10:36:47;;;;;;;55.45;21.35;;;26.30;58.50;;;;;;4148945;28;20054;-58